createdAt,value
2023-05-19T00:00:19.050Z,7.90
2023-05-19T00:03:26.298Z,7.88
2023-05-19T00:06:27.746Z,7.87
2023-05-19T00:09:27.643Z,7.86
2023-05-19T00:12:34.826Z,7.85
2023-05-19T00:15:35.496Z,7.84
2023-05-19T00:18:35.186Z,7.81
2023-05-19T00:21:34.977Z,7.79
2023-05-19T00:24:33.690Z,7.79
2023-05-19T00:27:33.469Z,7.80
2023-05-19T00:30:33.345Z,7.81
2023-05-19T00:33:35.422Z,7.83
2023-05-19T00:36:42.585Z,7.85
2023-05-19T00:39:42.385Z,7.86
2023-05-19T00:42:50.437Z,7.87
2023-05-19T00:45:50.912Z,7.89
2023-05-19T00:48:49.631Z,7.90
2023-05-19T00:51:49.606Z,7.91
2023-05-19T00:54:56.665Z,7.92
2023-05-19T00:57:56.439Z,7.93
2023-05-19T01:01:04.210Z,7.93
2023-05-19T01:04:07.277Z,7.93
2023-05-19T01:07:17.128Z,7.93
2023-05-19T01:10:16.504Z,7.93
2023-05-19T01:13:15.535Z,7.92
2023-05-19T01:16:15.363Z,7.91
2023-05-19T01:19:10.270Z,7.91
2023-05-19T01:22:12.174Z,7.91
2023-05-19T01:25:04.760Z,7.91
2023-05-19T01:28:05.593Z,7.91
2023-05-19T01:31:13.564Z,7.90
2023-05-19T01:34:13.346Z,7.87
2023-05-19T01:37:12.046Z,7.86
2023-05-19T01:40:10.861Z,7.87
2023-05-19T01:43:13.192Z,7.86
2023-05-19T01:46:15.665Z,7.86
2023-05-19T01:49:15.440Z,7.86
2023-05-19T01:52:15.194Z,7.86
2023-05-19T01:55:21.276Z,7.86
2023-05-19T01:58:24.394Z,7.87
2023-05-19T02:01:07.902Z,7.86
2023-05-19T02:04:08.803Z,7.86
2023-05-19T02:06:53.329Z,7.85
2023-05-19T02:09:54.131Z,7.84
2023-05-19T02:12:52.862Z,7.84
2023-05-19T02:15:55.424Z,7.83
2023-05-19T02:18:55.263Z,7.81
2023-05-19T02:21:55.680Z,7.81
2023-05-19T02:24:57.899Z,7.81
2023-05-19T02:27:58.202Z,7.81
2023-05-19T02:30:57.518Z,7.80
2023-05-19T02:33:57.249Z,7.80
2023-05-19T02:37:02.525Z,7.82
2023-05-19T02:40:02.335Z,7.81
2023-05-19T02:43:01.072Z,7.80
2023-05-19T02:45:59.825Z,7.78
2023-05-19T02:49:06.978Z,7.79
2023-05-19T02:52:06.113Z,7.78
2023-05-19T02:55:04.783Z,7.78
2023-05-19T02:58:03.610Z,7.78
2023-05-19T03:01:02.300Z,7.79
2023-05-19T03:04:09.598Z,7.79
2023-05-19T03:07:09.316Z,7.78
2023-05-19T03:10:19.583Z,7.80
2023-05-19T03:13:09.932Z,7.80
2023-05-19T03:16:08.696Z,7.83
2023-05-19T03:19:08.731Z,7.84
2023-05-19T03:22:08.050Z,7.85
2023-05-19T03:25:06.759Z,7.86
2023-05-19T03:28:13.968Z,7.87
2023-05-19T03:31:13.701Z,7.87
2023-05-19T03:34:16.682Z,7.88
2023-05-19T03:37:16.431Z,7.89
2023-05-19T03:40:15.950Z,7.91
2023-05-19T03:43:15.123Z,7.92
2023-05-19T03:46:22.397Z,7.93
2023-05-19T03:49:17.722Z,7.95
2023-05-19T03:52:17.533Z,7.96
2023-05-19T03:55:17.238Z,7.98
2023-05-19T03:58:16.041Z,8.00
2023-05-19T04:01:14.787Z,8.02
2023-05-19T04:04:13.887Z,8.04
2023-05-19T04:07:21.006Z,8.08
2023-05-19T04:10:20.755Z,8.12
2023-05-19T04:13:19.572Z,8.16
2023-05-19T04:16:22.787Z,8.19
2023-05-19T04:19:22.183Z,8.21
2023-05-19T04:22:22.327Z,8.24
2023-05-19T04:25:27.966Z,8.28
2023-05-19T04:28:26.682Z,8.31
2023-05-19T04:31:27.018Z,8.36
2023-05-19T04:34:25.784Z,8.41
2023-05-19T04:37:30.630Z,8.46
2023-05-19T04:40:36.850Z,8.50
2023-05-19T04:43:35.575Z,8.54
2023-05-19T04:46:35.309Z,8.60
2023-05-19T04:49:34.048Z,8.66
2023-05-19T04:52:33.164Z,8.72
2023-05-19T04:55:40.331Z,8.78
2023-05-19T04:58:47.366Z,8.87
2023-05-19T05:01:46.754Z,8.95
2023-05-19T05:04:38.205Z,9.01
2023-05-19T05:07:37.023Z,9.09
2023-05-19T05:10:44.287Z,9.13
2023-05-19T05:13:44.074Z,9.13
2023-05-19T05:16:43.260Z,9.13
2023-05-19T05:19:47.512Z,9.15
2023-05-19T05:22:54.757Z,9.17
2023-05-19T05:25:54.217Z,9.18
2023-05-19T05:28:52.917Z,9.20
2023-05-19T05:31:51.912Z,9.23
2023-05-19T05:34:59.119Z,9.24
2023-05-19T05:37:58.584Z,9.25
2023-05-19T05:40:50.206Z,9.28
2023-05-19T05:43:57.049Z,9.28
2023-05-19T05:46:55.716Z,9.25
2023-05-19T05:49:55.465Z,9.23
2023-05-19T05:52:56.489Z,9.23
2023-05-19T05:55:56.430Z,9.25
2023-05-19T05:58:56.220Z,9.26
2023-05-19T06:02:03.635Z,9.27
2023-05-19T06:05:03.469Z,9.29
2023-05-19T06:08:03.325Z,9.28
2023-05-19T06:11:03.214Z,9.27
2023-05-19T06:13:54.999Z,9.27
2023-05-19T06:17:02.156Z,9.29
2023-05-19T06:20:01.664Z,9.30
2023-05-19T06:23:01.503Z,9.31
2023-05-19T06:26:01.437Z,9.33
2023-05-19T06:29:00.111Z,9.36
2023-05-19T06:32:08.310Z,9.40
2023-05-19T06:35:15.627Z,9.46
2023-05-19T06:38:16.106Z,9.51
2023-05-19T06:41:07.515Z,9.56
2023-05-19T06:44:17.112Z,9.63
2023-05-19T06:47:16.179Z,9.69
2023-05-19T06:50:16.299Z,9.75
2023-05-19T06:53:16.014Z,9.78
2023-05-19T06:56:14.872Z,9.80
2023-05-19T06:59:14.407Z,9.84
2023-05-19T07:02:21.846Z,9.86
2023-05-19T07:05:27.783Z,9.88
2023-05-19T07:08:27.020Z,9.93
2023-05-19T07:11:27.096Z,9.99
2023-05-19T07:14:26.172Z,10.01
2023-05-19T07:17:25.070Z,9.99
2023-05-19T07:20:23.976Z,9.98
2023-05-19T07:23:22.685Z,9.97
2023-05-19T07:26:21.473Z,9.98
2023-05-19T07:29:20.422Z,9.99
2023-05-19T07:32:19.598Z,10.05
2023-05-19T07:35:19.351Z,10.11
2023-05-19T07:38:26.501Z,10.21
2023-05-19T07:41:26.319Z,10.29
2023-05-19T07:44:25.383Z,10.34
2023-05-19T07:47:25.688Z,10.41
2023-05-19T07:50:24.555Z,10.47
2023-05-19T07:53:24.582Z,10.53
2023-05-19T07:56:21.839Z,10.58
2023-05-19T07:59:20.666Z,10.65
2023-05-19T08:02:20.614Z,10.73
2023-05-19T08:05:20.362Z,10.80
2023-05-19T08:08:12.233Z,10.83
2023-05-19T08:11:11.018Z,10.83
2023-05-19T08:14:10.084Z,10.79
2023-05-19T08:17:08.857Z,10.77
2023-05-19T08:20:19.554Z,10.84
2023-05-19T08:23:18.368Z,10.95
2023-05-19T08:26:17.461Z,11.09
2023-05-19T08:29:19.180Z,11.19
2023-05-19T08:32:18.051Z,11.22
2023-05-19T08:35:18.625Z,11.23
2023-05-19T08:38:18.333Z,11.25
2023-05-19T08:41:19.654Z,11.26
2023-05-19T08:44:20.430Z,11.26
2023-05-19T08:47:21.691Z,11.25
2023-05-19T08:50:21.569Z,11.24
2023-05-19T08:53:31.785Z,11.24
2023-05-19T08:56:34.238Z,11.25
2023-05-19T08:59:32.960Z,11.24
2023-05-19T09:02:31.847Z,11.22
2023-05-19T09:05:30.999Z,11.21
2023-05-19T09:08:29.792Z,11.19
2023-05-19T09:11:28.518Z,11.20
2023-05-19T09:14:28.204Z,11.23
2023-05-19T09:17:31.275Z,11.26
2023-05-19T09:20:39.646Z,11.31
2023-05-19T09:23:45.826Z,11.35
2023-05-19T09:26:44.756Z,11.37
2023-05-19T09:29:45.359Z,11.38
2023-05-19T09:36:00.219Z,11.46
2023-05-19T09:38:59.004Z,11.47
2023-05-19T09:41:57.835Z,11.43
2023-05-19T09:44:56.561Z,11.42
2023-05-19T09:47:55.709Z,11.45
2023-05-19T09:50:56.273Z,11.49
2023-05-19T09:53:46.744Z,11.51
2023-05-19T09:56:46.987Z,11.50
2023-05-19T09:59:46.344Z,11.52
2023-05-19T10:02:37.163Z,11.53
2023-05-19T10:05:36.174Z,11.55
2023-05-19T10:08:35.184Z,11.60
2023-05-19T10:11:34.471Z,11.66
2023-05-19T10:14:34.976Z,11.68
2023-05-19T10:17:33.803Z,11.73
2023-05-19T10:20:32.901Z,11.76
2023-05-19T10:23:32.940Z,11.80
2023-05-19T10:26:40.262Z,11.85
2023-05-19T10:29:47.583Z,11.89
2023-05-19T10:32:54.958Z,11.93
2023-05-19T10:35:49.643Z,11.99
2023-05-19T10:38:50.534Z,11.99
2023-05-19T10:41:46.925Z,11.95
2023-05-19T10:44:40.835Z,11.97
2023-05-19T10:47:39.565Z,11.98
2023-05-19T10:50:39.705Z,11.99
2023-05-19T10:53:39.708Z,11.99
2023-05-19T10:56:39.459Z,11.94
2023-05-19T10:59:39.541Z,11.91
2023-05-19T11:02:38.831Z,11.89
2023-05-19T11:05:32.434Z,11.92
2023-05-19T11:08:31.877Z,11.94
2023-05-19T11:11:31.477Z,11.95
2023-05-19T11:14:39.483Z,11.98
2023-05-19T11:17:46.586Z,12.04
2023-05-19T11:20:40.241Z,12.05
2023-05-19T11:23:29.052Z,12.07
2023-05-19T11:26:36.401Z,12.04
2023-05-19T11:29:35.458Z,12.05
2023-05-19T11:32:35.383Z,12.03
2023-05-19T11:35:27.414Z,11.95
2023-05-19T11:38:30.674Z,11.89
2023-05-19T11:41:31.884Z,11.86
2023-05-19T11:44:30.566Z,11.86
2023-05-19T11:47:38.738Z,11.85
2023-05-19T11:50:45.979Z,11.87
2023-05-19T11:53:53.177Z,11.88
2023-05-19T11:56:51.830Z,11.88
2023-05-19T11:59:50.736Z,11.85
2023-05-19T12:02:38.383Z,11.82
2023-05-19T12:05:42.022Z,11.81
2023-05-19T12:08:50.715Z,11.84
2023-05-19T12:11:51.075Z,11.88
2023-05-19T12:14:58.126Z,11.89
2023-05-19T12:18:05.635Z,11.89
2023-05-19T12:21:04.533Z,11.90
2023-05-19T12:24:04.439Z,11.93
2023-05-19T12:27:11.492Z,11.94
2023-05-19T12:30:11.525Z,11.97
2023-05-19T12:33:18.623Z,12.02
2023-05-19T12:36:18.424Z,12.07
2023-05-19T12:39:19.407Z,12.03
2023-05-19T12:42:25.802Z,12.02
2023-05-19T12:45:24.510Z,12.05
2023-05-19T12:48:24.282Z,12.08
2023-05-19T12:51:34.182Z,12.08
2023-05-19T12:54:34.020Z,12.07
2023-05-19T12:57:41.124Z,12.09
2023-05-19T13:00:33.231Z,12.11
2023-05-19T13:03:17.906Z,12.14
2023-05-19T13:06:17.131Z,12.13
2023-05-19T13:09:16.940Z,12.15
2023-05-19T13:12:16.573Z,12.17
2023-05-19T13:15:16.038Z,12.19
2023-05-19T13:18:14.777Z,12.22
2023-05-19T13:21:22.433Z,12.25
2023-05-19T13:24:21.189Z,12.23
2023-05-19T13:27:20.177Z,12.23
2023-05-19T13:30:18.921Z,12.25
2023-05-19T13:33:17.671Z,12.28
2023-05-19T13:36:17.461Z,12.26
2023-05-19T13:39:17.668Z,12.26
2023-05-19T13:42:17.411Z,12.20
2023-05-19T13:45:17.468Z,12.14
2023-05-19T13:48:10.366Z,12.13
2023-05-19T13:51:09.685Z,12.13
2023-05-19T13:54:05.427Z,12.13
2023-05-19T13:57:04.404Z,12.11
2023-05-19T14:00:04.023Z,12.12
2023-05-19T14:03:03.844Z,12.13
2023-05-19T14:06:02.576Z,12.12
2023-05-19T14:09:03.859Z,12.09
2023-05-19T14:12:11.101Z,12.04
2023-05-19T14:15:11.617Z,12.02
2023-05-19T14:18:11.476Z,12.00
2023-05-19T14:21:10.227Z,11.99
2023-05-19T14:24:08.884Z,11.97
2023-05-19T14:27:02.074Z,11.92
2023-05-19T14:30:00.982Z,11.90
2023-05-19T14:32:54.668Z,11.89
2023-05-19T14:35:54.289Z,11.92
2023-05-19T14:38:53.025Z,11.91
2023-05-19T14:41:45.411Z,11.90
2023-05-19T14:44:47.183Z,11.93
2023-05-19T14:47:47.069Z,11.96
2023-05-19T14:50:46.427Z,11.98
2023-05-19T14:53:45.168Z,11.99
2023-05-19T14:56:43.876Z,11.99
2023-05-19T14:59:43.100Z,12.00
2023-05-19T15:02:42.855Z,11.98
2023-05-19T15:05:41.599Z,11.95
2023-05-19T15:08:41.331Z,11.89
2023-05-19T15:11:42.235Z,11.84
2023-05-19T15:14:40.957Z,11.80
2023-05-19T15:17:39.720Z,11.75
2023-05-19T15:20:38.643Z,11.73
2023-05-19T15:23:38.417Z,11.73
2023-05-19T15:26:38.196Z,11.72
2023-05-19T15:29:37.120Z,11.72
2023-05-19T15:32:29.773Z,11.71
2023-05-19T15:35:28.580Z,11.71
2023-05-19T15:38:30.008Z,11.71
2023-05-19T15:41:33.521Z,11.69
2023-05-19T15:44:32.797Z,11.68
2023-05-19T15:47:31.715Z,11.67
2023-05-19T15:50:31.402Z,11.63
2023-05-19T15:53:31.298Z,11.63
2023-05-19T15:56:31.017Z,11.61
2023-05-19T15:59:38.141Z,11.58
2023-05-19T16:02:36.962Z,11.56
2023-05-19T16:05:35.765Z,11.56
2023-05-19T16:08:34.492Z,11.54
2023-05-19T16:11:34.253Z,11.52
2023-05-19T16:14:24.627Z,11.50
2023-05-19T16:17:24.474Z,11.48
2023-05-19T16:20:23.303Z,11.47
2023-05-19T16:23:22.625Z,11.44
2023-05-19T16:26:22.364Z,11.40
2023-05-19T16:29:21.129Z,11.36
2023-05-19T16:32:20.033Z,11.35
2023-05-19T16:35:22.220Z,11.36
2023-05-19T16:38:29.453Z,11.37
2023-05-19T16:41:30.184Z,11.35
2023-05-19T16:44:30.401Z,11.33
2023-05-19T16:47:29.140Z,11.33
2023-05-19T16:50:27.974Z,11.33
2023-05-19T16:53:26.658Z,11.32
2023-05-19T16:56:28.460Z,11.33
2023-05-19T16:59:28.156Z,11.33
2023-05-19T17:02:26.957Z,11.31
2023-05-19T17:05:31.528Z,11.29
2023-05-19T17:08:31.303Z,11.27
2023-05-19T17:11:30.068Z,11.24
2023-05-19T17:14:28.848Z,11.22
2023-05-19T17:17:27.577Z,11.21
2023-05-19T17:20:34.974Z,11.19
2023-05-19T17:23:42.217Z,11.15
2023-05-19T17:26:43.723Z,11.11
2023-05-19T17:29:43.483Z,11.09
2023-05-19T17:32:50.653Z,11.08
2023-05-19T17:35:42.262Z,11.08
2023-05-19T17:38:41.642Z,11.06
2023-05-19T17:41:41.857Z,11.04
2023-05-19T17:44:41.576Z,11.03
2023-05-19T17:47:41.876Z,11.05
2023-05-19T17:50:43.272Z,11.05
2023-05-19T17:53:42.022Z,11.04
2023-05-19T17:56:40.962Z,11.04
2023-05-19T17:59:48.089Z,11.03
2023-05-19T18:02:40.759Z,11.02
2023-05-19T18:05:39.625Z,10.97
2023-05-19T18:08:39.793Z,10.94
2023-05-19T18:11:39.096Z,10.92
2023-05-19T18:14:38.055Z,10.89
2023-05-19T18:17:36.903Z,10.87
2023-05-19T18:20:36.029Z,10.85
2023-05-19T18:23:34.829Z,10.82
2023-05-19T18:26:33.587Z,10.79
2023-05-19T18:29:32.963Z,10.77
2023-05-19T18:32:31.829Z,10.76
2023-05-19T18:35:31.616Z,10.76
2023-05-19T18:38:31.357Z,10.76
2023-05-19T18:41:31.500Z,10.77
2023-05-19T18:44:31.740Z,10.78
2023-05-19T18:47:41.886Z,10.78
2023-05-19T18:50:41.826Z,10.77
2023-05-19T18:53:48.929Z,10.77
2023-05-19T18:56:48.837Z,10.78
2023-05-19T18:59:42.339Z,10.78
2023-05-19T19:02:41.073Z,10.77
2023-05-19T19:05:48.289Z,10.77
2023-05-19T19:08:47.056Z,10.76
2023-05-19T19:11:47.494Z,10.76
2023-05-19T19:14:52.158Z,10.75
2023-05-19T19:17:53.952Z,10.75
2023-05-19T19:20:52.661Z,10.75
2023-05-19T19:23:54.571Z,10.75
2023-05-19T19:26:53.501Z,10.76
2023-05-19T19:29:53.274Z,10.75
2023-05-19T19:32:53.088Z,10.74
2023-05-19T19:35:54.617Z,10.73
2023-05-19T19:38:46.451Z,10.73
2023-05-19T19:41:46.672Z,10.72
2023-05-19T19:44:46.596Z,10.71
2023-05-19T19:47:37.072Z,10.70
2023-05-19T19:50:34.467Z,10.69
2023-05-19T19:53:34.745Z,10.66
2023-05-19T19:56:33.712Z,10.66
2023-05-19T19:59:32.519Z,10.64
2023-05-19T20:02:31.314Z,10.64
2023-05-19T20:05:30.667Z,10.64
2023-05-19T20:08:30.637Z,10.65
2023-05-19T20:11:22.905Z,10.63
2023-05-19T20:14:22.754Z,10.64
2023-05-19T20:17:21.827Z,10.64
2023-05-19T20:20:20.632Z,10.63
2023-05-19T20:23:20.460Z,10.62
2023-05-19T20:26:20.225Z,10.62
2023-05-19T20:29:22.678Z,10.60
2023-05-19T20:32:22.683Z,10.61
2023-05-19T20:35:23.389Z,10.60
2023-05-19T20:38:23.156Z,10.59
2023-05-19T20:41:23.534Z,10.58
2023-05-19T20:44:22.292Z,10.55
2023-05-19T20:47:21.114Z,10.52
2023-05-19T20:50:19.829Z,10.50
2023-05-19T20:53:18.579Z,10.48
2023-05-19T20:56:19.239Z,10.47
2023-05-19T20:59:18.961Z,10.45
2023-05-19T21:02:17.776Z,10.43
2023-05-19T21:05:24.899Z,10.40
2023-05-19T21:08:23.674Z,10.37
2023-05-19T21:11:22.663Z,10.34
2023-05-19T21:14:26.110Z,10.33
2023-05-19T21:17:16.548Z,10.30
2023-05-19T21:20:14.486Z,10.29
2023-05-19T21:23:14.474Z,10.29
2023-05-19T21:26:14.187Z,10.29
2023-05-19T21:29:13.007Z,10.29
2023-05-19T21:32:11.974Z,10.30
2023-05-19T21:35:10.782Z,10.30
2023-05-19T21:38:23.938Z,10.31
2023-05-19T21:41:31.507Z,10.31
2023-05-19T21:44:30.465Z,10.31
2023-05-19T21:47:34.507Z,10.31
2023-05-19T21:50:34.535Z,10.29
2023-05-19T21:53:33.448Z,10.28
2023-05-19T21:56:33.149Z,10.27
2023-05-19T21:59:31.906Z,10.24
2023-05-19T22:02:31.201Z,10.21
2023-05-19T22:05:30.200Z,10.20
2023-05-19T22:08:30.061Z,10.19
2023-05-19T22:11:29.143Z,10.18
2023-05-19T22:14:27.879Z,10.17
2023-05-19T22:17:26.742Z,10.14
2023-05-19T22:20:25.487Z,10.13
2023-05-19T22:23:28.472Z,10.11
2023-05-19T22:26:29.366Z,10.09
2023-05-19T22:29:29.140Z,10.10
2023-05-19T22:32:27.950Z,10.10
2023-05-19T22:35:35.330Z,10.10
2023-05-19T22:38:25.661Z,10.09
2023-05-19T22:41:25.968Z,10.07
2023-05-19T22:44:24.705Z,10.06
2023-05-19T22:47:32.116Z,10.05
2023-05-19T22:50:31.904Z,10.03
2023-05-19T22:53:39.014Z,10.01
2023-05-19T22:56:37.976Z,10.00
2023-05-19T22:59:36.974Z,10.00
2023-05-19T23:02:35.720Z,10.00
2023-05-19T23:05:27.701Z,10.00
2023-05-19T23:08:29.877Z,9.99
2023-05-19T23:11:28.928Z,9.98
2023-05-19T23:14:27.708Z,9.97
2023-05-19T23:17:26.907Z,9.98
2023-05-19T23:20:21.644Z,9.97
2023-05-19T23:23:22.283Z,9.97
2023-05-19T23:26:21.013Z,9.94
2023-05-19T23:29:20.082Z,9.94
2023-05-19T23:32:18.857Z,9.94
2023-05-19T23:35:17.716Z,9.95
2023-05-19T23:38:17.466Z,9.95
2023-05-19T23:41:17.220Z,9.95
2023-05-19T23:44:15.700Z,9.95
2023-05-19T23:47:19.327Z,9.96
2023-05-19T23:50:10.068Z,9.97
2023-05-19T23:53:08.831Z,9.98
2023-05-19T23:56:08.109Z,9.98
2023-05-19T23:59:07.144Z,10.00
